createdAt,value
2022-12-18T00:01:51.876Z,-1.03
2022-12-18T00:04:23.784Z,-0.97
2022-12-18T00:06:52.391Z,-0.96
2022-12-18T00:09:20.694Z,-0.98
2022-12-18T00:11:49.272Z,-0.96
2022-12-18T00:14:17.411Z,-0.97
2022-12-18T00:16:47.500Z,-1.03
2022-12-18T00:19:16.395Z,-1.10
2022-12-18T00:21:44.938Z,-1.13
2022-12-18T00:24:13.057Z,-1.14
2022-12-18T00:26:40.982Z,-1.13
2022-12-18T00:29:14.788Z,-1.16
2022-12-18T00:31:44.989Z,-1.16
2022-12-18T00:34:14.134Z,-1.11
2022-12-18T00:36:42.444Z,-1.03
2022-12-18T00:39:11.919Z,-0.98
2022-12-18T00:41:58.290Z,-0.98
2022-12-18T00:44:27.070Z,-0.97
2022-12-18T00:46:55.143Z,-0.96
2022-12-18T00:49:23.154Z,-0.92
2022-12-18T00:51:51.136Z,-0.86
2022-12-18T00:54:19.164Z,-0.80
2022-12-18T00:56:50.268Z,-0.76
2022-12-18T00:59:19.508Z,-0.73
2022-12-18T01:01:48.228Z,-0.74
2022-12-18T01:04:16.493Z,-0.76
2022-12-18T01:06:47.087Z,-0.78
2022-12-18T01:09:14.963Z,-0.82
2022-12-18T01:11:42.936Z,-0.86
2022-12-18T01:14:12.533Z,-0.92
2022-12-18T01:16:40.613Z,-0.99
2022-12-18T01:19:08.687Z,-1.02
2022-12-18T01:21:36.668Z,-1.04
2022-12-18T01:24:06.167Z,-1.05
2022-12-18T01:26:35.309Z,-1.07
2022-12-18T01:29:03.849Z,-1.11
2022-12-18T01:31:34.387Z,-1.13
2022-12-18T01:34:05.642Z,-1.16
2022-12-18T01:36:37.296Z,-1.18
2022-12-18T01:39:13.390Z,-1.20
2022-12-18T01:42:02.116Z,-1.22
2022-12-18T01:44:51.576Z,-1.24
2022-12-18T01:47:45.569Z,-1.25
2022-12-18T01:50:19.041Z,-1.27
2022-12-18T01:52:56.746Z,-1.29
2022-12-18T01:55:32.265Z,-1.30
2022-12-18T01:58:01.428Z,-1.31
2022-12-18T02:00:30.578Z,-1.31
2022-12-18T02:02:58.613Z,-1.31
2022-12-18T02:05:48.094Z,-1.31
2022-12-18T02:08:26.153Z,-1.31
2022-12-18T02:11:28.534Z,-1.32
2022-12-18T02:14:10.224Z,-1.34
2022-12-18T02:16:38.181Z,-1.38
2022-12-18T02:19:21.962Z,-1.40
2022-12-18T02:22:22.191Z,-1.43
2022-12-18T02:25:15.124Z,-1.45
2022-12-18T02:27:46.863Z,-1.45
2022-12-18T02:30:16.329Z,-1.46
2022-12-18T02:32:51.088Z,-1.47
2022-12-18T02:35:26.346Z,-1.47
2022-12-18T02:37:56.579Z,-1.45
2022-12-18T02:40:28.642Z,-1.45
2022-12-18T02:43:04.207Z,-1.46
2022-12-18T02:45:32.510Z,-1.48
2022-12-18T02:48:00.853Z,-1.50
2022-12-18T02:50:36.046Z,-1.50
2022-12-18T02:53:29.506Z,-1.49
2022-12-18T02:56:06.882Z,-1.44
2022-12-18T02:58:55.021Z,-1.37
2022-12-18T03:02:10.565Z,-1.28
2022-12-18T03:04:52.724Z,-1.21
2022-12-18T03:07:58.910Z,-1.17
2022-12-18T03:10:31.686Z,-1.13
2022-12-18T03:13:17.690Z,-1.11
2022-12-18T03:15:50.627Z,-1.17
2022-12-18T03:18:23.238Z,-1.25
2022-12-18T03:20:57.752Z,-1.31
2022-12-18T03:23:30.274Z,-1.36
2022-12-18T03:26:07.644Z,-1.39
2022-12-18T03:28:43.315Z,-1.43
2022-12-18T03:31:14.752Z,-1.47
2022-12-18T03:33:48.153Z,-1.49
2022-12-18T03:36:16.456Z,-1.50
2022-12-18T03:38:44.335Z,-1.52
2022-12-18T03:41:24.381Z,-1.53
2022-12-18T03:44:27.954Z,-1.54
2022-12-18T03:47:13.670Z,-1.52
2022-12-18T03:49:57.507Z,-1.52
2022-12-18T03:52:33.937Z,-1.52
2022-12-18T03:55:04.339Z,-1.55
2022-12-18T03:57:34.158Z,-1.58
2022-12-18T04:00:10.871Z,-1.62
2022-12-18T04:02:57.936Z,-1.66
2022-12-18T04:05:36.242Z,-1.70
2022-12-18T04:08:05.664Z,-1.75
2022-12-18T04:10:38.402Z,-1.78
2022-12-18T04:13:06.482Z,-1.78
2022-12-18T04:15:38.892Z,-1.77
2022-12-18T04:18:08.762Z,-1.77
2022-12-18T04:20:42.815Z,-1.76
2022-12-18T04:23:12.423Z,-1.75
2022-12-18T04:25:40.586Z,-1.75
2022-12-18T04:28:15.019Z,-1.75
2022-12-18T04:30:43.823Z,-1.76
2022-12-18T04:33:12.920Z,-1.77
2022-12-18T04:35:44.571Z,-1.74
2022-12-18T04:38:12.578Z,-1.72
2022-12-18T04:40:41.351Z,-1.68
2022-12-18T04:43:14.127Z,-1.66
2022-12-18T04:45:42.084Z,-1.63
2022-12-18T04:48:10.054Z,-1.63
2022-12-18T04:50:38.691Z,-1.64
2022-12-18T04:53:06.695Z,-1.63
2022-12-18T04:55:34.830Z,-1.60
2022-12-18T04:58:02.726Z,-1.57
2022-12-18T05:00:30.706Z,-1.55
2022-12-18T05:02:58.576Z,-1.54
2022-12-18T05:05:26.725Z,-1.53
2022-12-18T05:07:54.575Z,-1.53
2022-12-18T05:10:22.780Z,-1.53
2022-12-18T05:13:01.229Z,-1.53
2022-12-18T05:15:31.896Z,-1.54
2022-12-18T05:18:00.741Z,-1.55
2022-12-18T05:20:29.237Z,-1.57
2022-12-18T05:22:57.417Z,-1.58
2022-12-18T05:25:25.855Z,-1.58
2022-12-18T05:27:53.788Z,-1.60
2022-12-18T05:30:21.797Z,-1.60
2022-12-18T05:32:49.708Z,-1.61
2022-12-18T05:35:17.842Z,-1.61
2022-12-18T05:37:46.155Z,-1.61
2022-12-18T05:40:14.636Z,-1.61
2022-12-18T05:42:42.493Z,-1.58
2022-12-18T05:45:10.501Z,-1.55
2022-12-18T05:47:38.429Z,-1.52
2022-12-18T05:50:07.988Z,-1.49
2022-12-18T05:52:35.861Z,-1.46
2022-12-18T05:55:03.944Z,-1.43
2022-12-18T05:57:31.857Z,-1.39
2022-12-18T05:59:59.799Z,-1.34
2022-12-18T06:02:27.801Z,-1.29
2022-12-18T06:04:56.051Z,-1.29
2022-12-18T06:07:23.972Z,-1.27
2022-12-18T06:09:51.838Z,-1.26
2022-12-18T06:12:19.743Z,-1.26
2022-12-18T06:14:47.640Z,-1.24
2022-12-18T06:17:15.455Z,-1.23
2022-12-18T06:19:43.361Z,-1.22
2022-12-18T06:22:11.264Z,-1.21
2022-12-18T06:24:39.127Z,-1.20
2022-12-18T06:27:06.985Z,-1.18
2022-12-18T06:29:34.971Z,-1.17
2022-12-18T06:32:02.853Z,-1.22
2022-12-18T06:34:33.669Z,-1.26
2022-12-18T06:37:01.503Z,-1.24
2022-12-18T06:39:29.502Z,-1.21
2022-12-18T06:41:57.447Z,-1.16
2022-12-18T06:44:25.415Z,-1.12
2022-12-18T06:46:53.371Z,-1.13
2022-12-18T06:49:21.305Z,-1.17
2022-12-18T06:51:49.302Z,-1.17
2022-12-18T06:54:17.852Z,-1.19
2022-12-18T06:56:48.793Z,-1.21
2022-12-18T06:59:16.958Z,-1.21
2022-12-18T07:01:45.556Z,-1.18
2022-12-18T07:04:13.787Z,-1.18
2022-12-18T07:06:41.786Z,-1.25
2022-12-18T07:09:09.692Z,-1.34
2022-12-18T07:11:37.633Z,-1.39
2022-12-18T07:14:05.501Z,-1.43
2022-12-18T07:16:33.581Z,-1.45
2022-12-18T07:19:01.620Z,-1.47
2022-12-18T07:21:29.700Z,-1.53
2022-12-18T07:23:57.550Z,-1.57
2022-12-18T07:26:25.409Z,-1.61
2022-12-18T07:28:58.573Z,-1.64
2022-12-18T07:31:28.145Z,-1.65
2022-12-18T07:33:56.721Z,-1.67
2022-12-18T07:36:25.258Z,-1.71
2022-12-18T07:38:54.065Z,-1.73
2022-12-18T07:41:21.959Z,-1.72
2022-12-18T07:43:50.053Z,-1.70
2022-12-18T07:46:20.816Z,-1.66
2022-12-18T07:48:49.821Z,-1.65
2022-12-18T07:51:19.493Z,-1.66
2022-12-18T07:53:49.322Z,-1.69
2022-12-18T07:56:30.426Z,-1.70
2022-12-18T07:59:00.327Z,-1.69
2022-12-18T08:01:28.684Z,-1.68
2022-12-18T08:03:58.734Z,-1.69
2022-12-18T08:06:26.979Z,-1.70
2022-12-18T08:08:56.467Z,-1.68
2022-12-18T08:11:26.708Z,-1.64
2022-12-18T08:13:55.217Z,-1.59
2022-12-18T08:16:24.031Z,-1.54
2022-12-18T08:18:54.203Z,-1.48
2022-12-18T08:21:28.148Z,-1.43
2022-12-18T08:23:58.541Z,-1.39
2022-12-18T08:26:29.426Z,-1.34
2022-12-18T08:28:59.044Z,-1.30
2022-12-18T08:31:28.855Z,-1.26
2022-12-18T08:33:57.873Z,-1.20
2022-12-18T08:36:26.057Z,-1.12
2022-12-18T08:38:55.670Z,-1.06
2022-12-18T08:41:24.201Z,-1.01
2022-12-18T08:44:11.006Z,-1.02
2022-12-18T08:46:41.205Z,-1.00
2022-12-18T08:49:11.404Z,-0.97
2022-12-18T08:51:40.135Z,-1.03
2022-12-18T08:54:10.494Z,-1.09
2022-12-18T08:56:38.455Z,-1.15
2022-12-18T08:59:06.554Z,-1.19
2022-12-18T09:01:35.302Z,-1.16
2022-12-18T09:04:04.058Z,-1.12
2022-12-18T09:06:32.758Z,-1.12
2022-12-18T09:09:01.323Z,-1.14
2022-12-18T09:11:33.100Z,-1.15
2022-12-18T09:14:02.479Z,-1.08
2022-12-18T09:16:32.718Z,-1.03
2022-12-18T09:19:01.189Z,-1.00
2022-12-18T09:21:34.258Z,-0.94
2022-12-18T09:24:08.960Z,-0.89
2022-12-18T09:26:38.544Z,-0.86
2022-12-18T09:29:08.438Z,-0.85
2022-12-18T09:31:37.839Z,-0.84
2022-12-18T09:34:05.718Z,-0.80
2022-12-18T09:36:34.373Z,-0.78
2022-12-18T09:39:06.449Z,-0.91
2022-12-18T09:41:54.363Z,-1.05
2022-12-18T09:44:24.836Z,-1.07
2022-12-18T09:47:01.750Z,-1.03
2022-12-18T09:49:35.656Z,-0.99
2022-12-18T09:52:30.906Z,-1.01
2022-12-18T09:55:11.797Z,-1.02
2022-12-18T09:57:47.002Z,-1.04
2022-12-18T10:00:22.250Z,-1.10
2022-12-18T10:02:54.129Z,-1.14
2022-12-18T10:05:37.320Z,-1.12
2022-12-18T10:08:37.446Z,-1.06
2022-12-18T10:11:28.555Z,-0.99
2022-12-18T10:14:20.474Z,-0.93
2022-12-18T10:17:12.648Z,-0.86
2022-12-18T10:19:50.171Z,-0.84
2022-12-18T10:22:21.255Z,-0.79
2022-12-18T10:24:59.277Z,-0.73
2022-12-18T10:27:29.691Z,-0.67
2022-12-18T10:29:58.667Z,-0.62
2022-12-18T10:32:30.032Z,-0.56
2022-12-18T10:35:02.751Z,-0.51
2022-12-18T10:38:01.643Z,-0.47
2022-12-18T10:40:29.877Z,-0.46
2022-12-18T10:43:20.149Z,-0.47
2022-12-18T10:46:21.683Z,-0.48
2022-12-18T10:48:54.658Z,-0.44
2022-12-18T10:51:31.534Z,-0.47
2022-12-18T10:54:03.082Z,-0.53
2022-12-18T10:56:35.853Z,-0.50
2022-12-18T10:59:12.995Z,-0.45
2022-12-18T11:01:57.929Z,-0.46
2022-12-18T11:04:28.808Z,-0.48
2022-12-18T11:07:08.606Z,-0.47
2022-12-18T11:58:38.208Z,-0.82
2022-12-18T12:01:06.188Z,-0.92
2022-12-18T12:03:46.190Z,-0.94
2022-12-18T12:06:35.958Z,-0.90
2022-12-18T12:09:18.967Z,-0.89
2022-12-18T12:12:16.122Z,-0.85
2022-12-18T12:15:11.328Z,-0.82
2022-12-18T12:17:51.333Z,-0.78
2022-12-18T12:20:39.177Z,-0.73
2022-12-18T12:23:27.998Z,-0.58
2022-12-18T12:26:11.156Z,-0.27
2022-12-18T12:29:20.984Z,0.04
2022-12-18T12:32:04.497Z,0.29
2022-12-18T12:35:11.756Z,0.42
2022-12-18T12:38:01.559Z,0.46
2022-12-18T12:40:54.909Z,0.46
2022-12-18T12:43:49.471Z,0.44
2022-12-18T12:46:23.854Z,0.42
2022-12-18T12:49:02.812Z,0.39
2022-12-18T12:51:37.972Z,0.36
2022-12-18T12:54:14.046Z,0.35
2022-12-18T12:57:12.050Z,0.32
2022-12-18T13:00:04.555Z,0.29
2022-12-18T13:02:57.850Z,0.25
2022-12-18T13:05:56.082Z,0.21
2022-12-18T13:08:24.041Z,0.17
2022-12-18T13:11:13.819Z,0.12
2022-12-18T13:13:56.754Z,0.04
2022-12-18T13:16:30.639Z,0.01
2022-12-18T13:18:59.866Z,0.02
2022-12-18T13:21:34.150Z,0.04
2022-12-18T13:24:28.243Z,0.01
2022-12-18T13:26:56.262Z,-0.07
2022-12-18T13:29:45.007Z,-0.15
2022-12-18T13:32:26.155Z,-0.25
2022-12-18T13:35:23.109Z,-0.35
2022-12-18T13:37:54.079Z,-0.45
2022-12-18T13:40:40.545Z,-0.54
2022-12-18T13:43:33.502Z,-0.58
2022-12-18T13:46:23.298Z,-0.60
2022-12-18T13:49:15.128Z,-0.61
2022-12-18T13:51:47.717Z,-0.68
2022-12-18T13:54:41.322Z,-0.73
2022-12-18T13:57:31.372Z,-0.73
2022-12-18T14:00:29.907Z,-0.75
2022-12-18T14:02:59.572Z,-0.83
2022-12-18T14:05:35.107Z,-0.87
2022-12-18T14:08:11.219Z,-0.88
2022-12-18T14:10:48.569Z,-0.93
2022-12-18T14:13:36.112Z,-1.00
2022-12-18T14:16:07.419Z,-1.04
2022-12-18T14:18:44.367Z,-1.10
2022-12-18T14:21:26.644Z,-1.17
2022-12-18T14:24:27.192Z,-1.22
2022-12-18T14:26:55.200Z,-1.27
2022-12-18T14:29:27.132Z,-1.32
2022-12-18T14:32:18.269Z,-1.38
2022-12-18T14:34:55.192Z,-1.44
2022-12-18T14:37:28.060Z,-1.50
2022-12-18T14:40:08.682Z,-1.56
2022-12-18T14:42:38.540Z,-1.61
2022-12-18T14:45:43.308Z,-1.64
2022-12-18T14:48:48.601Z,-1.70
2022-12-18T14:51:20.878Z,-1.77
2022-12-18T14:53:55.094Z,-1.82
2022-12-18T14:56:38.547Z,-1.86
2022-12-18T14:59:24.762Z,-1.91
2022-12-18T15:02:02.407Z,-1.94
2022-12-18T15:04:39.965Z,-1.98
2022-12-18T15:07:21.639Z,-2.01
2022-12-18T15:10:13.211Z,-2.05
2022-12-18T15:12:45.534Z,-2.09
2022-12-18T15:15:38.540Z,-2.12
2022-12-18T15:18:09.652Z,-2.15
2022-12-18T15:20:47.444Z,-2.18
2022-12-18T15:23:24.337Z,-2.20
2022-12-18T15:26:11.672Z,-2.24
2022-12-18T15:28:51.155Z,-2.27
2022-12-18T15:31:38.877Z,-2.30
2022-12-18T15:34:22.384Z,-2.33
2022-12-18T15:36:52.211Z,-2.36
2022-12-18T15:39:20.125Z,-2.39
2022-12-18T15:42:06.862Z,-2.39
2022-12-18T15:44:35.069Z,-2.39
2022-12-18T15:47:03.059Z,-2.38
2022-12-18T15:49:30.938Z,-2.38
2022-12-18T15:52:01.019Z,-2.38
2022-12-18T15:54:47.727Z,-2.37
2022-12-18T15:57:24.764Z,-2.34
2022-12-18T15:59:55.117Z,-2.32
2022-12-18T16:02:23.995Z,-2.28
2022-12-18T16:04:53.315Z,-2.23
2022-12-18T16:07:24.554Z,-2.18
2022-12-18T16:09:53.697Z,-2.13
2022-12-18T16:12:24.063Z,-2.11
2022-12-18T16:14:52.053Z,-2.09
2022-12-18T16:17:20.429Z,-2.05
2022-12-18T16:19:48.352Z,-2.00
2022-12-18T16:22:25.209Z,-1.97
2022-12-18T16:24:54.516Z,-1.96
2022-12-18T16:27:23.732Z,-2.00
2022-12-18T16:29:52.114Z,-2.02
2022-12-18T16:32:22.406Z,-2.02
2022-12-18T16:35:01.530Z,-2.01
2022-12-18T16:37:29.575Z,-1.98
2022-12-18T16:39:57.450Z,-1.94
2022-12-18T16:42:25.333Z,-1.91
2022-12-18T16:44:55.007Z,-1.93
2022-12-18T16:47:22.949Z,-1.93
2022-12-18T16:49:52.942Z,-1.92
2022-12-18T16:52:22.980Z,-1.92
2022-12-18T16:54:51.210Z,-1.94
2022-12-18T16:57:21.087Z,-1.98
2022-12-18T16:59:53.804Z,-2.05
2022-12-18T17:02:24.726Z,-2.13
2022-12-18T17:04:58.295Z,-2.22
2022-12-18T17:07:28.259Z,-2.28
2022-12-18T17:09:57.237Z,-2.37
2022-12-18T17:12:26.774Z,-2.43
2022-12-18T17:14:54.674Z,-2.50
2022-12-18T17:17:23.798Z,-2.56
2022-12-18T17:19:52.907Z,-2.63
2022-12-18T17:22:23.446Z,-2.69
2022-12-18T17:24:51.581Z,-2.74
2022-12-18T17:27:19.666Z,-2.81
2022-12-18T17:29:48.833Z,-2.87
2022-12-18T17:32:18.255Z,-2.94
2022-12-18T17:34:46.658Z,-2.99
2022-12-18T17:37:15.484Z,-3.04
2022-12-18T17:39:43.406Z,-3.10
2022-12-18T17:42:14.916Z,-3.14
2022-12-18T17:44:44.327Z,-3.20
2022-12-18T17:47:13.677Z,-3.26
2022-12-18T17:49:42.078Z,-3.31
2022-12-18T17:52:10.459Z,-3.35
2022-12-18T17:54:41.481Z,-3.40
2022-12-18T17:57:10.478Z,-3.44
2022-12-18T17:59:38.563Z,-3.49
2022-12-18T18:02:07.381Z,-3.54
2022-12-18T18:04:36.469Z,-3.58
2022-12-18T18:07:04.613Z,-3.62
2022-12-18T18:09:32.724Z,-3.64
2022-12-18T18:12:19.282Z,-3.67
2022-12-18T18:14:47.386Z,-3.72
2022-12-18T18:17:15.621Z,-3.75
2022-12-18T18:19:44.166Z,-3.78
2022-12-18T18:22:15.902Z,-3.81
2022-12-18T18:24:46.941Z,-3.85
2022-12-18T18:27:15.279Z,-3.89
2022-12-18T18:29:43.394Z,-3.91
2022-12-18T18:32:11.358Z,-3.93
2022-12-18T18:34:42.289Z,-3.96
2022-12-18T18:37:10.587Z,-3.98
2022-12-18T18:39:38.385Z,-4.01
2022-12-18T18:42:06.487Z,-4.04
2022-12-18T18:44:35.294Z,-4.06
2022-12-18T18:47:03.607Z,-4.07
2022-12-18T18:49:34.599Z,-4.10
2022-12-18T18:52:02.871Z,-4.12
2022-12-18T18:54:31.149Z,-4.14
2022-12-18T18:59:49.575Z,-4.20
2022-12-18T19:02:18.008Z,-4.23
2022-12-18T19:04:47.007Z,-4.25
2022-12-18T19:07:29.981Z,-4.28
2022-12-18T19:10:05.137Z,-4.33
2022-12-18T19:12:53.430Z,-4.37
2022-12-18T19:15:23.211Z,-4.40
2022-12-18T19:17:51.561Z,-4.44
2022-12-18T19:20:19.534Z,-4.47
2022-12-18T19:22:48.577Z,-4.49
2022-12-18T19:25:37.153Z,-4.52
2022-12-18T19:28:13.539Z,-4.55
2022-12-18T19:30:50.905Z,-4.59
2022-12-18T19:33:42.433Z,-4.62
2022-12-18T19:36:21.380Z,-4.65
2022-12-18T19:38:51.063Z,-4.67
2022-12-18T19:41:20.186Z,-4.69
2022-12-18T19:43:50.029Z,-4.71
2022-12-18T19:46:20.606Z,-4.74
2022-12-18T19:48:49.488Z,-4.77
2022-12-18T19:51:20.307Z,-4.80
2022-12-18T19:53:49.861Z,-4.83
2022-12-18T19:56:23.543Z,-4.86
2022-12-18T19:58:52.690Z,-4.85
2022-12-18T20:01:22.294Z,-4.83
2022-12-18T20:03:52.369Z,-4.81
2022-12-18T20:06:25.682Z,-4.78
2022-12-18T20:09:00.060Z,-4.75
2022-12-18T20:11:41.475Z,-4.70
2022-12-18T20:14:12.198Z,-4.63
2022-12-18T20:16:40.796Z,-4.55
2022-12-18T20:19:10.929Z,-4.48
2022-12-18T20:21:39.404Z,-4.40
2022-12-18T20:24:08.762Z,-4.31
2022-12-18T20:26:36.959Z,-4.22
2022-12-18T20:29:05.083Z,-4.13
2022-12-18T20:31:33.224Z,-4.06
2022-12-18T20:34:02.638Z,-4.01
2022-12-18T20:36:34.256Z,-4.00
2022-12-18T20:39:07.655Z,-3.99
2022-12-18T20:41:39.263Z,-3.97
2022-12-18T20:44:21.800Z,-3.94
2022-12-18T20:46:54.773Z,-3.90
2022-12-18T20:49:24.348Z,-3.85
2022-12-18T20:51:53.982Z,-3.80
2022-12-18T20:54:23.746Z,-3.79
2022-12-18T20:56:52.105Z,-3.78
2022-12-18T20:59:20.802Z,-3.76
2022-12-18T21:01:49.715Z,-3.74
2022-12-18T21:04:19.281Z,-3.77
2022-12-18T21:06:57.793Z,-3.84
2022-12-18T21:09:30.352Z,-3.93
2022-12-18T21:12:40.283Z,-4.02
2022-12-18T21:15:13.362Z,-4.12
2022-12-18T21:17:45.056Z,-4.18
2022-12-18T21:20:17.505Z,-4.25
2022-12-18T21:22:47.237Z,-4.29
2022-12-18T21:25:15.232Z,-4.36
2022-12-18T21:27:43.180Z,-4.42
2022-12-18T21:30:15.044Z,-4.49
2022-12-18T21:32:43.142Z,-4.57
2022-12-18T21:35:11.066Z,-4.65
2022-12-18T21:37:39.135Z,-4.69
2022-12-18T21:40:08.055Z,-4.74
2022-12-18T21:42:54.521Z,-4.81
2022-12-18T21:45:22.398Z,-4.88
2022-12-18T21:47:50.384Z,-4.92
2022-12-18T21:50:18.338Z,-4.96
2022-12-18T21:52:46.353Z,-5.02
2022-12-18T21:55:14.301Z,-5.08
2022-12-18T21:57:42.224Z,-5.14
2022-12-18T22:00:18.574Z,-5.20
2022-12-18T22:03:17.645Z,-5.26
2022-12-18T22:05:37.794Z,-5.32
2022-12-18T22:08:07.058Z,-5.38
2022-12-18T22:10:36.320Z,-5.43
2022-12-18T22:13:05.787Z,-5.48
2022-12-18T22:15:33.902Z,-5.53
2022-12-18T22:18:02.077Z,-5.59
2022-12-18T22:20:30.248Z,-5.64
2022-12-18T22:22:59.048Z,-5.67
2022-12-18T22:25:32.364Z,-5.68
2022-12-18T22:28:22.685Z,-5.68
2022-12-18T22:30:50.670Z,-5.67
2022-12-18T22:33:25.863Z,-5.64
2022-12-18T22:35:53.833Z,-5.60
2022-12-18T22:38:21.656Z,-5.55
2022-12-18T22:40:49.546Z,-5.50
2022-12-18T22:43:17.750Z,-5.45
2022-12-18T22:45:47.455Z,-5.38
2022-12-18T22:48:15.572Z,-5.31
2022-12-18T22:50:44.555Z,-5.23
2022-12-18T22:53:12.482Z,-5.18
2022-12-18T22:55:40.343Z,-5.11
2022-12-18T22:58:08.224Z,-5.06
2022-12-18T23:00:36.085Z,-5.00
2022-12-18T23:03:04.938Z,-4.97
2022-12-18T23:05:35.498Z,-4.96
2022-12-18T23:08:03.415Z,-4.94
2022-12-18T23:10:31.268Z,-4.89
2022-12-18T23:12:59.134Z,-4.85
2022-12-18T23:15:28.511Z,-4.83
2022-12-18T23:17:58.874Z,-4.84
2022-12-18T23:20:28.315Z,-4.86
2022-12-18T23:22:56.294Z,-4.86
2022-12-18T23:25:24.355Z,-4.89
2022-12-18T23:27:52.362Z,-4.96
2022-12-18T23:30:20.339Z,-5.03
2022-12-18T23:32:48.346Z,-5.13
2022-12-18T23:35:17.244Z,-5.20
2022-12-18T23:37:59.382Z,-5.27
2022-12-18T23:40:29.645Z,-5.33
2022-12-18T23:42:59.148Z,-5.40
2022-12-18T23:45:27.077Z,-5.46
2022-12-18T23:47:54.902Z,-5.52
2022-12-18T23:50:29.026Z,-5.58
2022-12-18T23:53:04.592Z,-5.64
2022-12-18T23:55:39.754Z,-5.70
2022-12-18T23:58:14.942Z,-5.76
